sensor_id;sensor_type;location;lat;lon;timestamp;P1;durP1;ratioP1;P2;durP2;ratioP2
22610;SDS011;11472;45.494;12.142;2023-02-28T00:00:00;8.40;;;5.80;;
22610;SDS011;11472;45.494;12.142;2023-02-28T00:01:00;8.40;;;5.80;;
22610;SDS011;11472;45.494;12.142;2023-02-28T00:02:00;8.40;;;5.80;;
22610;SDS011;11472;45.494;12.142;2023-02-28T00:03:01;8.40;;;5.80;;
22610;SDS011;11472;45.494;12.142;2023-02-28T00:04:00;8.40;;;5.80;;
22610;SDS011;11472;45.494;12.142;2023-02-28T00:05:01;8.40;;;5.80;;
22610;SDS011;11472;45.494;12.142;2023-02-28T00:06:03;8.40;;;5.80;;
22610;SDS011;11472;45.494;12.142;2023-02-28T00:07:01;8.40;;;5.80;;
22610;SDS011;11472;45.494;12.142;2023-02-28T00:08:00;9.10;;;5.90;;
22610;SDS011;11472;45.494;12.142;2023-02-28T00:09:00;9.10;;;5.90;;
22610;SDS011;11472;45.494;12.142;2023-02-28T00:10:01;9.10;;;5.90;;
22610;SDS011;11472;45.494;12.142;2023-02-28T00:11:03;9.10;;;5.90;;
22610;SDS011;11472;45.494;12.142;2023-02-28T00:12:09;9.10;;;5.90;;
22610;SDS011;11472;45.494;12.142;2023-02-28T00:13:03;9.10;;;5.90;;
22610;SDS011;11472;45.494;12.142;2023-02-28T00:14:00;9.10;;;5.90;;
22610;SDS011;11472;45.494;12.142;2023-02-28T00:15:01;9.10;;;5.90;;
22610;SDS011;11472;45.494;12.142;2023-02-28T00:16:02;9.10;;;5.90;;
22610;SDS011;11472;45.494;12.142;2023-02-28T00:17:00;9.10;;;5.90;;
22610;SDS011;11472;45.494;12.142;2023-02-28T00:18:01;9.10;;;5.90;;
22610;SDS011;11472;45.494;12.142;2023-02-28T00:19:00;9.10;;;5.90;;
22610;SDS011;11472;45.494;12.142;2023-02-28T00:20:10;9.10;;;5.90;;
22610;SDS011;11472;45.494;12.142;2023-02-28T00:21:00;9.10;;;5.90;;
22610;SDS011;11472;45.494;12.142;2023-02-28T00:22:00;9.10;;;5.90;;
22610;SDS011;11472;45.494;12.142;2023-02-28T00:23:00;8.50;;;5.70;;
22610;SDS011;11472;45.494;12.142;2023-02-28T00:24:00;8.50;;;5.70;;
22610;SDS011;11472;45.494;12.142;2023-02-28T00:25:00;8.50;;;5.70;;
22610;SDS011;11472;45.494;12.142;2023-02-28T00:26:00;8.50;;;5.70;;
22610;SDS011;11472;45.494;12.142;2023-02-28T00:27:00;8.50;;;5.70;;
22610;SDS011;11472;45.494;12.142;2023-02-28T00:28:00;8.50;;;5.70;;
22610;SDS011;11472;45.494;12.142;2023-02-28T00:29:00;8.50;;;5.70;;
22610;SDS011;11472;45.494;12.142;2023-02-28T00:30:01;8.50;;;5.70;;
22610;SDS011;11472;45.494;12.142;2023-02-28T00:31:01;8.50;;;5.70;;
22610;SDS011;11472;45.494;12.142;2023-02-28T00:32:01;8.50;;;5.70;;
22610;SDS011;11472;45.494;12.142;2023-02-28T00:33:00;8.50;;;5.70;;
22610;SDS011;11472;45.494;12.142;2023-02-28T00:34:00;8.50;;;5.70;;
22610;SDS011;11472;45.494;12.142;2023-02-28T00:35:01;8.50;;;5.70;;
22610;SDS011;11472;45.494;12.142;2023-02-28T00:36:10;8.50;;;5.70;;
22610;SDS011;11472;45.494;12.142;2023-02-28T00:37:00;8.50;;;5.70;;
22610;SDS011;11472;45.494;12.142;2023-02-28T00:38:00;8.70;;;5.90;;
22610;SDS011;11472;45.494;12.142;2023-02-28T00:39:01;8.70;;;5.90;;
22610;SDS011;11472;45.494;12.142;2023-02-28T00:40:01;8.70;;;5.90;;
22610;SDS011;11472;45.494;12.142;2023-02-28T00:41:04;8.70;;;5.90;;
22610;SDS011;11472;45.494;12.142;2023-02-28T00:42:01;8.70;;;5.90;;
22610;SDS011;11472;45.494;12.142;2023-02-28T00:43:00;8.70;;;5.90;;
22610;SDS011;11472;45.494;12.142;2023-02-28T00:44:00;8.70;;;5.90;;
22610;SDS011;11472;45.494;12.142;2023-02-28T00:45:01;8.70;;;5.90;;
22610;SDS011;11472;45.494;12.142;2023-02-28T00:46:01;8.70;;;5.90;;
22610;SDS011;11472;45.494;12.142;2023-02-28T00:47:00;8.70;;;5.90;;
22610;SDS011;11472;45.494;12.142;2023-02-28T00:48:00;8.70;;;5.90;;
22610;SDS011;11472;45.494;12.142;2023-02-28T00:49:00;8.70;;;5.90;;
22610;SDS011;11472;45.494;12.142;2023-02-28T00:50:01;8.70;;;5.90;;
22610;SDS011;11472;45.494;12.142;2023-02-28T00:51:01;8.70;;;5.90;;
22610;SDS011;11472;45.494;12.142;2023-02-28T00:52:00;8.70;;;5.90;;
22610;SDS011;11472;45.494;12.142;2023-02-28T00:53:00;11.20;;;6.10;;
22610;SDS011;11472;45.494;12.142;2023-02-28T00:54:00;11.20;;;6.10;;
22610;SDS011;11472;45.494;12.142;2023-02-28T00:55:00;11.20;;;6.10;;
22610;SDS011;11472;45.494;12.142;2023-02-28T00:56:01;11.20;;;6.10;;
22610;SDS011;11472;45.494;12.142;2023-02-28T00:57:00;11.20;;;6.10;;
22610;SDS011;11472;45.494;12.142;2023-02-28T00:58:00;11.20;;;6.10;;
22610;SDS011;11472;45.494;12.142;2023-02-28T00:59:00;11.20;;;6.10;;
22610;SDS011;11472;45.494;12.142;2023-02-28T01:00:00;11.20;;;6.10;;
22610;SDS011;11472;45.494;12.142;2023-02-28T01:01:00;11.20;;;6.10;;
22610;SDS011;11472;45.494;12.142;2023-02-28T01:02:01;11.20;;;6.10;;
22610;SDS011;11472;45.494;12.142;2023-02-28T01:03:00;11.20;;;6.10;;
22610;SDS011;11472;45.494;12.142;2023-02-28T01:04:00;11.20;;;6.10;;
22610;SDS011;11472;45.494;12.142;2023-02-28T01:05:00;11.20;;;6.10;;
22610;SDS011;11472;45.494;12.142;2023-02-28T01:06:00;11.20;;;6.10;;
22610;SDS011;11472;45.494;12.142;2023-02-28T01:07:00;11.20;;;6.10;;
22610;SDS011;11472;45.494;12.142;2023-02-28T01:08:00;9.10;;;6.40;;
22610;SDS011;11472;45.494;12.142;2023-02-28T01:09:00;9.10;;;6.40;;
22610;SDS011;11472;45.494;12.142;2023-02-28T01:10:00;9.10;;;6.40;;
22610;SDS011;11472;45.494;12.142;2023-02-28T01:11:11;9.10;;;6.40;;
22610;SDS011;11472;45.494;12.142;2023-02-28T01:12:00;9.10;;;6.40;;
22610;SDS011;11472;45.494;12.142;2023-02-28T01:13:00;9.10;;;6.40;;
22610;SDS011;11472;45.494;12.142;2023-02-28T01:14:01;9.10;;;6.40;;
22610;SDS011;11472;45.494;12.142;2023-02-28T01:15:00;9.10;;;6.40;;
22610;SDS011;11472;45.494;12.142;2023-02-28T01:16:00;9.10;;;6.40;;
22610;SDS011;11472;45.494;12.142;2023-02-28T01:17:00;9.10;;;6.40;;
22610;SDS011;11472;45.494;12.142;2023-02-28T01:18:00;9.10;;;6.40;;
22610;SDS011;11472;45.494;12.142;2023-02-28T01:19:00;9.10;;;6.40;;
22610;SDS011;11472;45.494;12.142;2023-02-28T01:20:00;9.10;;;6.40;;
22610;SDS011;11472;45.494;12.142;2023-02-28T01:21:07;9.10;;;6.40;;
22610;SDS011;11472;45.494;12.142;2023-02-28T01:22:02;9.10;;;6.40;;
22610;SDS011;11472;45.494;12.142;2023-02-28T01:23:00;10.50;;;6.40;;
22610;SDS011;11472;45.494;12.142;2023-02-28T01:24:00;10.50;;;6.40;;
22610;SDS011;11472;45.494;12.142;2023-02-28T01:25:00;10.50;;;6.40;;
22610;SDS011;11472;45.494;12.142;2023-02-28T01:26:12;10.50;;;6.40;;
22610;SDS011;11472;45.494;12.142;2023-02-28T01:27:00;10.50;;;6.40;;
22610;SDS011;11472;45.494;12.142;2023-02-28T01:28:00;10.50;;;6.40;;
22610;SDS011;11472;45.494;12.142;2023-02-28T01:29:00;10.50;;;6.40;;
22610;SDS011;11472;45.494;12.142;2023-02-28T01:30:01;10.50;;;6.40;;
22610;SDS011;11472;45.494;12.142;2023-02-28T01:31:01;10.50;;;6.40;;
22610;SDS011;11472;45.494;12.142;2023-02-28T01:32:00;10.50;;;6.40;;
22610;SDS011;11472;45.494;12.142;2023-02-28T01:33:00;10.50;;;6.40;;
22610;SDS011;11472;45.494;12.142;2023-02-28T01:34:01;10.50;;;6.40;;
22610;SDS011;11472;45.494;12.142;2023-02-28T01:35:00;10.50;;;6.40;;
22610;SDS011;11472;45.494;12.142;2023-02-28T01:36:05;10.50;;;6.40;;
22610;SDS011;11472;45.494;12.142;2023-02-28T01:37:01;10.50;;;6.40;;
22610;SDS011;11472;45.494;12.142;2023-02-28T01:38:10;11.40;;;6.90;;
22610;SDS011;11472;45.494;12.142;2023-02-28T01:39:00;11.40;;;6.90;;
22610;SDS011;11472;45.494;12.142;2023-02-28T01:40:00;11.40;;;6.90;;
22610;SDS011;11472;45.494;12.142;2023-02-28T01:41:00;11.40;;;6.90;;
22610;SDS011;11472;45.494;12.142;2023-02-28T01:42:00;11.40;;;6.90;;
22610;SDS011;11472;45.494;12.142;2023-02-28T01:43:00;11.40;;;6.90;;
22610;SDS011;11472;45.494;12.142;2023-02-28T01:44:05;11.40;;;6.90;;
22610;SDS011;11472;45.494;12.142;2023-02-28T01:46:00;11.40;;;6.90;;
22610;SDS011;11472;45.494;12.142;2023-02-28T01:47:00;11.40;;;6.90;;
22610;SDS011;11472;45.494;12.142;2023-02-28T01:48:04;11.40;;;6.90;;
22610;SDS011;11472;45.494;12.142;2023-02-28T01:49:05;11.40;;;6.90;;
22610;SDS011;11472;45.494;12.142;2023-02-28T01:50:04;11.40;;;6.90;;
22610;SDS011;11472;45.494;12.142;2023-02-28T01:51:03;11.40;;;6.90;;
22610;SDS011;11472;45.494;12.142;2023-02-28T01:52:00;11.40;;;6.90;;
22610;SDS011;11472;45.494;12.142;2023-02-28T01:53:02;11.20;;;6.90;;
22610;SDS011;11472;45.494;12.142;2023-02-28T01:54:07;11.20;;;6.90;;
22610;SDS011;11472;45.494;12.142;2023-02-28T01:55:01;11.20;;;6.90;;
22610;SDS011;11472;45.494;12.142;2023-02-28T01:56:00;11.20;;;6.90;;
22610;SDS011;11472;45.494;12.142;2023-02-28T01:57:07;11.20;;;6.90;;
22610;SDS011;11472;45.494;12.142;2023-02-28T01:58:02;11.20;;;6.90;;
22610;SDS011;11472;45.494;12.142;2023-02-28T01:59:00;11.20;;;6.90;;
22610;SDS011;11472;45.494;12.142;2023-02-28T02:00:03;11.20;;;6.90;;
22610;SDS011;11472;45.494;12.142;2023-02-28T02:01:03;11.20;;;6.90;;
22610;SDS011;11472;45.494;12.142;2023-02-28T02:02:02;11.20;;;6.90;;
22610;SDS011;11472;45.494;12.142;2023-02-28T02:03:06;11.20;;;6.90;;
22610;SDS011;11472;45.494;12.142;2023-02-28T02:04:01;11.20;;;6.90;;
22610;SDS011;11472;45.494;12.142;2023-02-28T02:05:05;11.20;;;6.90;;
22610;SDS011;11472;45.494;12.142;2023-02-28T02:06:01;11.20;;;6.90;;
22610;SDS011;11472;45.494;12.142;2023-02-28T02:07:00;11.20;;;6.90;;
22610;SDS011;11472;45.494;12.142;2023-02-28T02:08:04;8.40;;;5.80;;
22610;SDS011;11472;45.494;12.142;2023-02-28T02:09:00;8.40;;;5.80;;
22610;SDS011;11472;45.494;12.142;2023-02-28T02:11:01;8.40;;;5.80;;
22610;SDS011;11472;45.494;12.142;2023-02-28T02:12:03;8.40;;;5.80;;
22610;SDS011;11472;45.494;12.142;2023-02-28T02:18:09;8.40;;;5.80;;
22610;SDS011;11472;45.494;12.142;2023-02-28T02:20:26;8.40;;;5.80;;
22610;SDS011;11472;45.494;12.142;2023-02-28T02:21:11;8.40;;;5.80;;
22610;SDS011;11472;45.494;12.142;2023-02-28T02:24:14;10.50;;;6.50;;
22610;SDS011;11472;45.494;12.142;2023-02-28T02:26:16;10.50;;;6.50;;
22610;SDS011;11472;45.494;12.142;2023-02-28T02:27:19;10.50;;;6.50;;
22610;SDS011;11472;45.494;12.142;2023-02-28T02:28:33;10.50;;;6.50;;
22610;SDS011;11472;45.494;12.142;2023-02-28T02:31:20;10.50;;;6.50;;
22610;SDS011;11472;45.494;12.142;2023-02-28T02:33:02;10.50;;;6.50;;
22610;SDS011;11472;45.494;12.142;2023-02-28T02:39:06;9.70;;;6.10;;
22610;SDS011;11472;45.494;12.142;2023-02-28T02:40:07;9.70;;;6.10;;
22610;SDS011;11472;45.494;12.142;2023-02-28T02:41:04;9.70;;;6.10;;
22610;SDS011;11472;45.494;12.142;2023-02-28T02:42:01;9.70;;;6.10;;
22610;SDS011;11472;45.494;12.142;2023-02-28T02:45:04;9.70;;;6.10;;
22610;SDS011;11472;45.494;12.142;2023-02-28T02:46:04;9.70;;;6.10;;
22610;SDS011;11472;45.494;12.142;2023-02-28T02:47:05;9.70;;;6.10;;
22610;SDS011;11472;45.494;12.142;2023-02-28T02:48:00;9.70;;;6.10;;
22610;SDS011;11472;45.494;12.142;2023-02-28T02:49:02;9.70;;;6.10;;
22610;SDS011;11472;45.494;12.142;2023-02-28T02:50:03;9.70;;;6.10;;
22610;SDS011;11472;45.494;12.142;2023-02-28T02:51:03;9.70;;;6.10;;
22610;SDS011;11472;45.494;12.142;2023-02-28T02:52:03;9.70;;;6.10;;
22610;SDS011;11472;45.494;12.142;2023-02-28T02:53:01;9.70;;;6.60;;
22610;SDS011;11472;45.494;12.142;2023-02-28T02:54:11;9.70;;;6.60;;
22610;SDS011;11472;45.494;12.142;2023-02-28T02:55:00;9.70;;;6.60;;
22610;SDS011;11472;45.494;12.142;2023-02-28T02:56:01;9.70;;;6.60;;
22610;SDS011;11472;45.494;12.142;2023-02-28T02:57:04;9.70;;;6.60;;
22610;SDS011;11472;45.494;12.142;2023-02-28T02:58:03;9.70;;;6.60;;
22610;SDS011;11472;45.494;12.142;2023-02-28T02:59:03;9.70;;;6.60;;
22610;SDS011;11472;45.494;12.142;2023-02-28T03:00:02;9.70;;;6.60;;
22610;SDS011;11472;45.494;12.142;2023-02-28T03:01:01;9.70;;;6.60;;
22610;SDS011;11472;45.494;12.142;2023-02-28T03:02:04;9.70;;;6.60;;
22610;SDS011;11472;45.494;12.142;2023-02-28T03:03:00;9.70;;;6.60;;
22610;SDS011;11472;45.494;12.142;2023-02-28T03:04:04;9.70;;;6.60;;
22610;SDS011;11472;45.494;12.142;2023-02-28T03:05:04;9.70;;;6.60;;
22610;SDS011;11472;45.494;12.142;2023-02-28T03:06:01;9.70;;;6.60;;
22610;SDS011;11472;45.494;12.142;2023-02-28T03:07:00;9.70;;;6.60;;
22610;SDS011;11472;45.494;12.142;2023-02-28T03:08:04;8.40;;;6.30;;
22610;SDS011;11472;45.494;12.142;2023-02-28T03:09:01;8.40;;;6.30;;
22610;SDS011;11472;45.494;12.142;2023-02-28T03:10:01;8.40;;;6.30;;
22610;SDS011;11472;45.494;12.142;2023-02-28T03:11:04;8.40;;;6.30;;
22610;SDS011;11472;45.494;12.142;2023-02-28T03:12:00;8.40;;;6.30;;
22610;SDS011;11472;45.494;12.142;2023-02-28T03:15:24;8.40;;;6.30;;
22610;SDS011;11472;45.494;12.142;2023-02-28T03:20:25;8.40;;;6.30;;
22610;SDS011;11472;45.494;12.142;2023-02-28T03:21:04;8.40;;;6.30;;
22610;SDS011;11472;45.494;12.142;2023-02-28T03:23:08;9.20;;;6.00;;
22610;SDS011;11472;45.494;12.142;2023-02-28T03:26:19;9.20;;;6.00;;
22610;SDS011;11472;45.494;12.142;2023-02-28T03:27:07;9.20;;;6.00;;
22610;SDS011;11472;45.494;12.142;2023-02-28T03:28:03;9.20;;;6.00;;
22610;SDS011;11472;45.494;12.142;2023-02-28T03:29:02;9.20;;;6.00;;
22610;SDS011;11472;45.494;12.142;2023-02-28T03:31:13;9.20;;;6.00;;
22610;SDS011;11472;45.494;12.142;2023-02-28T03:32:04;9.20;;;6.00;;
22610;SDS011;11472;45.494;12.142;2023-02-28T03:33:09;9.20;;;6.00;;
22610;SDS011;11472;45.494;12.142;2023-02-28T03:34:05;9.20;;;6.00;;
22610;SDS011;11472;45.494;12.142;2023-02-28T03:35:07;9.20;;;6.00;;
22610;SDS011;11472;45.494;12.142;2023-02-28T03:36:07;9.20;;;6.00;;
22610;SDS011;11472;45.494;12.142;2023-02-28T03:37:04;9.20;;;6.00;;
22610;SDS011;11472;45.494;12.142;2023-02-28T03:38:11;9.70;;;6.10;;
22610;SDS011;11472;45.494;12.142;2023-02-28T03:39:05;9.70;;;6.10;;
22610;SDS011;11472;45.494;12.142;2023-02-28T03:40:05;9.70;;;6.10;;
22610;SDS011;11472;45.494;12.142;2023-02-28T03:41:05;9.70;;;6.10;;
22610;SDS011;11472;45.494;12.142;2023-02-28T03:42:03;9.70;;;6.10;;
22610;SDS011;11472;45.494;12.142;2023-02-28T03:43:04;9.70;;;6.10;;
22610;SDS011;11472;45.494;12.142;2023-02-28T03:44:05;9.70;;;6.10;;
22610;SDS011;11472;45.494;12.142;2023-02-28T03:45:02;9.70;;;6.10;;
22610;SDS011;11472;45.494;12.142;2023-02-28T03:46:02;9.70;;;6.10;;
22610;SDS011;11472;45.494;12.142;2023-02-28T03:47:04;9.70;;;6.10;;
22610;SDS011;11472;45.494;12.142;2023-02-28T03:48:02;9.70;;;6.10;;
22610;SDS011;11472;45.494;12.142;2023-02-28T03:49:04;9.70;;;6.10;;
22610;SDS011;11472;45.494;12.142;2023-02-28T03:51:01;9.70;;;6.10;;
22610;SDS011;11472;45.494;12.142;2023-02-28T03:52:02;9.70;;;6.10;;
22610;SDS011;11472;45.494;12.142;2023-02-28T03:53:07;11.90;;;6.60;;
22610;SDS011;11472;45.494;12.142;2023-02-28T03:54:05;11.90;;;6.60;;
22610;SDS011;11472;45.494;12.142;2023-02-28T03:55:04;11.90;;;6.60;;
22610;SDS011;11472;45.494;12.142;2023-02-28T03:57:06;11.90;;;6.60;;
22610;SDS011;11472;45.494;12.142;2023-02-28T03:58:12;11.90;;;6.60;;
22610;SDS011;11472;45.494;12.142;2023-02-28T03:59:04;11.90;;;6.60;;
22610;SDS011;11472;45.494;12.142;2023-02-28T04:00:06;11.90;;;6.60;;
22610;SDS011;11472;45.494;12.142;2023-02-28T04:01:09;11.90;;;6.60;;
22610;SDS011;11472;45.494;12.142;2023-02-28T04:02:00;11.90;;;6.60;;
22610;SDS011;11472;45.494;12.142;2023-02-28T04:03:00;11.90;;;6.60;;
22610;SDS011;11472;45.494;12.142;2023-02-28T04:04:00;11.90;;;6.60;;
22610;SDS011;11472;45.494;12.142;2023-02-28T04:05:01;11.90;;;6.60;;
22610;SDS011;11472;45.494;12.142;2023-02-28T04:06:00;11.90;;;6.60;;
22610;SDS011;11472;45.494;12.142;2023-02-28T04:07:03;11.90;;;6.60;;
22610;SDS011;11472;45.494;12.142;2023-02-28T04:08:05;10.50;;;6.90;;
22610;SDS011;11472;45.494;12.142;2023-02-28T04:09:01;10.50;;;6.90;;
22610;SDS011;11472;45.494;12.142;2023-02-28T04:10:00;10.50;;;6.90;;
22610;SDS011;11472;45.494;12.142;2023-02-28T04:11:06;10.50;;;6.90;;
22610;SDS011;11472;45.494;12.142;2023-02-28T04:12:00;10.50;;;6.90;;
22610;SDS011;11472;45.494;12.142;2023-02-28T04:13:00;10.50;;;6.90;;
22610;SDS011;11472;45.494;12.142;2023-02-28T04:14:02;10.50;;;6.90;;
22610;SDS011;11472;45.494;12.142;2023-02-28T04:15:00;10.50;;;6.90;;
22610;SDS011;11472;45.494;12.142;2023-02-28T04:16:00;10.50;;;6.90;;
22610;SDS011;11472;45.494;12.142;2023-02-28T04:17:00;10.50;;;6.90;;
22610;SDS011;11472;45.494;12.142;2023-02-28T04:18:00;10.50;;;6.90;;
22610;SDS011;11472;45.494;12.142;2023-02-28T04:19:03;10.50;;;6.90;;
22610;SDS011;11472;45.494;12.142;2023-02-28T04:20:00;10.50;;;6.90;;
22610;SDS011;11472;45.494;12.142;2023-02-28T04:21:00;10.50;;;6.90;;
22610;SDS011;11472;45.494;12.142;2023-02-28T04:22:00;10.50;;;6.90;;
22610;SDS011;11472;45.494;12.142;2023-02-28T04:23:00;14.10;;;7.40;;
22610;SDS011;11472;45.494;12.142;2023-02-28T04:24:03;14.10;;;7.40;;
22610;SDS011;11472;45.494;12.142;2023-02-28T04:25:00;14.10;;;7.40;;
22610;SDS011;11472;45.494;12.142;2023-02-28T04:26:00;14.10;;;7.40;;
22610;SDS011;11472;45.494;12.142;2023-02-28T04:27:00;14.10;;;7.40;;
22610;SDS011;11472;45.494;12.142;2023-02-28T04:28:01;14.10;;;7.40;;
22610;SDS011;11472;45.494;12.142;2023-02-28T04:29:01;14.10;;;7.40;;
22610;SDS011;11472;45.494;12.142;2023-02-28T04:30:00;14.10;;;7.40;;
22610;SDS011;11472;45.494;12.142;2023-02-28T04:31:03;14.10;;;7.40;;
22610;SDS011;11472;45.494;12.142;2023-02-28T04:32:01;14.10;;;7.40;;
22610;SDS011;11472;45.494;12.142;2023-02-28T04:33:01;14.10;;;7.40;;
22610;SDS011;11472;45.494;12.142;2023-02-28T04:34:01;14.10;;;7.40;;
22610;SDS011;11472;45.494;12.142;2023-02-28T04:35:00;14.10;;;7.40;;
22610;SDS011;11472;45.494;12.142;2023-02-28T04:36:04;14.10;;;7.40;;
22610;SDS011;11472;45.494;12.142;2023-02-28T04:37:10;14.10;;;7.40;;
22610;SDS011;11472;45.494;12.142;2023-02-28T04:38:00;10.50;;;7.10;;
22610;SDS011;11472;45.494;12.142;2023-02-28T04:39:00;10.50;;;7.10;;
22610;SDS011;11472;45.494;12.142;2023-02-28T04:40:01;10.50;;;7.10;;
22610;SDS011;11472;45.494;12.142;2023-02-28T04:41:00;10.50;;;7.10;;
22610;SDS011;11472;45.494;12.142;2023-02-28T04:42:00;10.50;;;7.10;;
22610;SDS011;11472;45.494;12.142;2023-02-28T04:43:00;10.50;;;7.10;;
22610;SDS011;11472;45.494;12.142;2023-02-28T04:44:00;10.50;;;7.10;;
22610;SDS011;11472;45.494;12.142;2023-02-28T04:45:01;10.50;;;7.10;;
22610;SDS011;11472;45.494;12.142;2023-02-28T04:46:02;10.50;;;7.10;;
22610;SDS011;11472;45.494;12.142;2023-02-28T04:47:00;10.50;;;7.10;;
22610;SDS011;11472;45.494;12.142;2023-02-28T04:48:00;10.50;;;7.10;;
22610;SDS011;11472;45.494;12.142;2023-02-28T04:49:00;10.50;;;7.10;;
22610;SDS011;11472;45.494;12.142;2023-02-28T04:50:00;10.50;;;7.10;;
22610;SDS011;11472;45.494;12.142;2023-02-28T04:51:12;10.50;;;7.10;;
22610;SDS011;11472;45.494;12.142;2023-02-28T04:52:00;10.50;;;7.10;;
22610;SDS011;11472;45.494;12.142;2023-02-28T04:53:00;11.50;;;6.70;;
22610;SDS011;11472;45.494;12.142;2023-02-28T04:54:00;11.50;;;6.70;;
22610;SDS011;11472;45.494;12.142;2023-02-28T04:55:01;11.50;;;6.70;;
22610;SDS011;11472;45.494;12.142;2023-02-28T04:56:01;11.50;;;6.70;;
22610;SDS011;11472;45.494;12.142;2023-02-28T04:57:01;11.50;;;6.70;;
22610;SDS011;11472;45.494;12.142;2023-02-28T04:58:00;11.50;;;6.70;;
22610;SDS011;11472;45.494;12.142;2023-02-28T04:59:00;11.50;;;6.70;;
22610;SDS011;11472;45.494;12.142;2023-02-28T05:00:00;11.50;;;6.70;;
22610;SDS011;11472;45.494;12.142;2023-02-28T05:01:04;11.50;;;6.70;;
22610;SDS011;11472;45.494;12.142;2023-02-28T05:02:06;11.50;;;6.70;;
22610;SDS011;11472;45.494;12.142;2023-02-28T05:03:00;11.50;;;6.70;;
22610;SDS011;11472;45.494;12.142;2023-02-28T05:04:02;11.50;;;6.70;;
22610;SDS011;11472;45.494;12.142;2023-02-28T05:05:00;11.50;;;6.70;;
22610;SDS011;11472;45.494;12.142;2023-02-28T05:06:01;11.50;;;6.70;;
22610;SDS011;11472;45.494;12.142;2023-02-28T05:07:01;11.50;;;6.70;;
22610;SDS011;11472;45.494;12.142;2023-02-28T05:08:00;8.40;;;6.30;;
22610;SDS011;11472;45.494;12.142;2023-02-28T05:09:01;8.40;;;6.30;;
22610;SDS011;11472;45.494;12.142;2023-02-28T05:10:00;8.40;;;6.30;;
22610;SDS011;11472;45.494;12.142;2023-02-28T05:11:01;8.40;;;6.30;;
22610;SDS011;11472;45.494;12.142;2023-02-28T05:12:00;8.40;;;6.30;;
22610;SDS011;11472;45.494;12.142;2023-02-28T05:13:00;8.40;;;6.30;;
22610;SDS011;11472;45.494;12.142;2023-02-28T05:14:05;8.40;;;6.30;;
22610;SDS011;11472;45.494;12.142;2023-02-28T05:15:02;8.40;;;6.30;;
22610;SDS011;11472;45.494;12.142;2023-02-28T05:16:00;8.40;;;6.30;;
22610;SDS011;11472;45.494;12.142;2023-02-28T05:17:00;8.40;;;6.30;;
22610;SDS011;11472;45.494;12.142;2023-02-28T05:18:00;8.40;;;6.30;;
22610;SDS011;11472;45.494;12.142;2023-02-28T05:19:00;8.40;;;6.30;;
22610;SDS011;11472;45.494;12.142;2023-02-28T05:20:11;8.40;;;6.30;;
22610;SDS011;11472;45.494;12.142;2023-02-28T05:21:02;8.40;;;6.30;;
22610;SDS011;11472;45.494;12.142;2023-02-28T05:22:00;8.40;;;6.30;;
22610;SDS011;11472;45.494;12.142;2023-02-28T05:23:00;10.10;;;6.70;;
22610;SDS011;11472;45.494;12.142;2023-02-28T05:24:04;10.10;;;6.70;;
22610;SDS011;11472;45.494;12.142;2023-02-28T05:25:00;10.10;;;6.70;;
22610;SDS011;11472;45.494;12.142;2023-02-28T05:26:00;10.10;;;6.70;;
22610;SDS011;11472;45.494;12.142;2023-02-28T05:27:00;10.10;;;6.70;;
22610;SDS011;11472;45.494;12.142;2023-02-28T05:28:00;10.10;;;6.70;;
22610;SDS011;11472;45.494;12.142;2023-02-28T05:29:00;10.10;;;6.70;;
22610;SDS011;11472;45.494;12.142;2023-02-28T05:30:03;10.10;;;6.70;;
22610;SDS011;11472;45.494;12.142;2023-02-28T05:31:00;10.10;;;6.70;;
22610;SDS011;11472;45.494;12.142;2023-02-28T05:32:00;10.10;;;6.70;;
22610;SDS011;11472;45.494;12.142;2023-02-28T05:33:00;10.10;;;6.70;;
22610;SDS011;11472;45.494;12.142;2023-02-28T05:34:01;10.10;;;6.70;;
22610;SDS011;11472;45.494;12.142;2023-02-28T05:35:00;10.10;;;6.70;;
22610;SDS011;11472;45.494;12.142;2023-02-28T05:36:00;10.10;;;6.70;;
22610;SDS011;11472;45.494;12.142;2023-02-28T05:37:00;10.10;;;6.70;;
22610;SDS011;11472;45.494;12.142;2023-02-28T05:38:00;12.60;;;7.50;;
22610;SDS011;11472;45.494;12.142;2023-02-28T05:39:00;12.60;;;7.50;;
22610;SDS011;11472;45.494;12.142;2023-02-28T05:40:01;12.60;;;7.50;;
22610;SDS011;11472;45.494;12.142;2023-02-28T05:41:04;12.60;;;7.50;;
22610;SDS011;11472;45.494;12.142;2023-02-28T05:42:00;12.60;;;7.50;;
22610;SDS011;11472;45.494;12.142;2023-02-28T05:43:00;12.60;;;7.50;;
22610;SDS011;11472;45.494;12.142;2023-02-28T05:44:01;12.60;;;7.50;;
22610;SDS011;11472;45.494;12.142;2023-02-28T05:45:00;12.60;;;7.50;;
22610;SDS011;11472;45.494;12.142;2023-02-28T05:46:03;12.60;;;7.50;;
22610;SDS011;11472;45.494;12.142;2023-02-28T05:47:00;12.60;;;7.50;;
22610;SDS011;11472;45.494;12.142;2023-02-28T05:48:00;12.60;;;7.50;;
22610;SDS011;11472;45.494;12.142;2023-02-28T05:49:01;12.60;;;7.50;;
22610;SDS011;11472;45.494;12.142;2023-02-28T05:50:01;12.60;;;7.50;;
22610;SDS011;11472;45.494;12.142;2023-02-28T05:51:01;12.60;;;7.50;;
22610;SDS011;11472;45.494;12.142;2023-02-28T05:52:00;12.60;;;7.50;;
22610;SDS011;11472;45.494;12.142;2023-02-28T05:53:00;9.60;;;6.80;;
22610;SDS011;11472;45.494;12.142;2023-02-28T05:54:01;9.60;;;6.80;;
22610;SDS011;11472;45.494;12.142;2023-02-28T05:55:00;9.60;;;6.80;;
22610;SDS011;11472;45.494;12.142;2023-02-28T05:56:00;9.60;;;6.80;;
22610;SDS011;11472;45.494;12.142;2023-02-28T05:57:00;9.60;;;6.80;;
22610;SDS011;11472;45.494;12.142;2023-02-28T05:58:00;9.60;;;6.80;;
22610;SDS011;11472;45.494;12.142;2023-02-28T05:59:00;9.60;;;6.80;;
22610;SDS011;11472;45.494;12.142;2023-02-28T06:00:01;9.60;;;6.80;;
22610;SDS011;11472;45.494;12.142;2023-02-28T06:01:18;9.60;;;6.80;;
22610;SDS011;11472;45.494;12.142;2023-02-28T06:02:00;9.60;;;6.80;;
22610;SDS011;11472;45.494;12.142;2023-02-28T06:03:02;9.60;;;6.80;;
22610;SDS011;11472;45.494;12.142;2023-02-28T06:04:02;9.60;;;6.80;;
22610;SDS011;11472;45.494;12.142;2023-02-28T06:05:00;9.60;;;6.80;;
22610;SDS011;11472;45.494;12.142;2023-02-28T06:06:00;9.60;;;6.80;;
22610;SDS011;11472;45.494;12.142;2023-02-28T06:07:01;9.60;;;6.80;;
22610;SDS011;11472;45.494;12.142;2023-02-28T06:08:00;10.50;;;6.90;;
22610;SDS011;11472;45.494;12.142;2023-02-28T06:09:00;10.50;;;6.90;;
22610;SDS011;11472;45.494;12.142;2023-02-28T06:10:00;10.50;;;6.90;;
22610;SDS011;11472;45.494;12.142;2023-02-28T06:11:03;10.50;;;6.90;;
22610;SDS011;11472;45.494;12.142;2023-02-28T06:12:03;10.50;;;6.90;;
22610;SDS011;11472;45.494;12.142;2023-02-28T06:13:02;10.50;;;6.90;;
22610;SDS011;11472;45.494;12.142;2023-02-28T06:14:01;10.50;;;6.90;;
22610;SDS011;11472;45.494;12.142;2023-02-28T06:15:00;10.50;;;6.90;;
22610;SDS011;11472;45.494;12.142;2023-02-28T06:16:01;10.50;;;6.90;;
22610;SDS011;11472;45.494;12.142;2023-02-28T06:17:01;10.50;;;6.90;;
22610;SDS011;11472;45.494;12.142;2023-02-28T06:18:00;10.50;;;6.90;;
22610;SDS011;11472;45.494;12.142;2023-02-28T06:19:02;10.50;;;6.90;;
22610;SDS011;11472;45.494;12.142;2023-02-28T06:20:00;10.50;;;6.90;;
22610;SDS011;11472;45.494;12.142;2023-02-28T06:21:00;10.50;;;6.90;;
22610;SDS011;11472;45.494;12.142;2023-02-28T06:22:00;10.50;;;6.90;;
22610;SDS011;11472;45.494;12.142;2023-02-28T06:23:00;13.50;;;7.10;;
22610;SDS011;11472;45.494;12.142;2023-02-28T06:24:01;13.50;;;7.10;;
22610;SDS011;11472;45.494;12.142;2023-02-28T06:25:00;13.50;;;7.10;;
22610;SDS011;11472;45.494;12.142;2023-02-28T06:26:00;13.50;;;7.10;;